sensor_id;sensor_type;location;lat;lon;timestamp;P1;durP1;ratioP1;P2;durP2;ratioP2
18190;SDS011;47004;51.366;12.348;2023-08-01T00:00:06;8.97;;;3.90;;
18190;SDS011;47004;51.366;12.348;2023-08-01T00:02:08;7.13;;;4.00;;
18190;SDS011;47004;51.366;12.348;2023-08-01T00:04:11;7.43;;;3.30;;
18190;SDS011;47004;51.366;12.348;2023-08-01T00:06:12;9.33;;;3.73;;
18190;SDS011;47004;51.366;12.348;2023-08-01T00:08:14;7.60;;;3.70;;
18190;SDS011;47004;51.366;12.348;2023-08-01T00:10:16;7.67;;;4.33;;
18190;SDS011;47004;51.366;12.348;2023-08-01T00:12:18;7.27;;;3.30;;
18190;SDS011;47004;51.366;12.348;2023-08-01T00:14:19;7.47;;;3.60;;
18190;SDS011;47004;51.366;12.348;2023-08-01T00:16:24;9.07;;;3.37;;
18190;SDS011;47004;51.366;12.348;2023-08-01T00:18:26;7.07;;;3.70;;
18190;SDS011;47004;51.366;12.348;2023-08-01T00:20:29;9.33;;;3.60;;
18190;SDS011;47004;51.366;12.348;2023-08-01T00:22:31;8.60;;;3.57;;
18190;SDS011;47004;51.366;12.348;2023-08-01T00:24:32;5.23;;;3.33;;
18190;SDS011;47004;51.366;12.348;2023-08-01T00:26:36;6.67;;;3.73;;
18190;SDS011;47004;51.366;12.348;2023-08-01T00:28:38;8.57;;;3.33;;
18190;SDS011;47004;51.366;12.348;2023-08-01T00:30:40;8.33;;;3.20;;
18190;SDS011;47004;51.366;12.348;2023-08-01T00:32:42;6.90;;;3.57;;
18190;SDS011;47004;51.366;12.348;2023-08-01T00:34:44;6.77;;;3.20;;
18190;SDS011;47004;51.366;12.348;2023-08-01T00:36:47;7.07;;;3.57;;
18190;SDS011;47004;51.366;12.348;2023-08-01T00:38:49;8.23;;;2.90;;
18190;SDS011;47004;51.366;12.348;2023-08-01T00:40:51;5.03;;;3.20;;
18190;SDS011;47004;51.366;12.348;2023-08-01T00:42:52;6.93;;;3.57;;
18190;SDS011;47004;51.366;12.348;2023-08-01T00:44:56;6.37;;;3.17;;
18190;SDS011;47004;51.366;12.348;2023-08-01T00:46:57;6.10;;;3.03;;
18190;SDS011;47004;51.366;12.348;2023-08-01T00:48:59;8.27;;;3.80;;
18190;SDS011;47004;51.366;12.348;2023-08-01T00:51:04;6.50;;;3.30;;
18190;SDS011;47004;51.366;12.348;2023-08-01T00:53:08;5.20;;;3.10;;
18190;SDS011;47004;51.366;12.348;2023-08-01T00:55:10;6.80;;;3.33;;
18190;SDS011;47004;51.366;12.348;2023-08-01T00:57:12;9.97;;;3.20;;
18190;SDS011;47004;51.366;12.348;2023-08-01T00:59:15;5.53;;;2.93;;
18190;SDS011;47004;51.366;12.348;2023-08-01T01:01:17;7.13;;;3.33;;
18190;SDS011;47004;51.366;12.348;2023-08-01T01:03:19;6.27;;;2.70;;
18190;SDS011;47004;51.366;12.348;2023-08-01T01:05:21;7.07;;;2.80;;
18190;SDS011;47004;51.366;12.348;2023-08-01T01:07:24;7.00;;;2.70;;
18190;SDS011;47004;51.366;12.348;2023-08-01T01:09:29;5.07;;;3.03;;
18190;SDS011;47004;51.366;12.348;2023-08-01T01:11:32;5.83;;;2.83;;
18190;SDS011;47004;51.366;12.348;2023-08-01T01:13:34;6.07;;;3.33;;
18190;SDS011;47004;51.366;12.348;2023-08-01T01:15:35;6.20;;;2.90;;
18190;SDS011;47004;51.366;12.348;2023-08-01T01:17:40;5.90;;;2.77;;
18190;SDS011;47004;51.366;12.348;2023-08-01T01:19:42;4.37;;;2.67;;
18190;SDS011;47004;51.366;12.348;2023-08-01T01:21:45;4.93;;;2.60;;
18190;SDS011;47004;51.366;12.348;2023-08-01T01:23:48;5.07;;;2.70;;
18190;SDS011;47004;51.366;12.348;2023-08-01T01:25:51;6.90;;;3.00;;
18190;SDS011;47004;51.366;12.348;2023-08-01T01:27:56;5.73;;;2.80;;
18190;SDS011;47004;51.366;12.348;2023-08-01T01:29:59;5.43;;;2.80;;
18190;SDS011;47004;51.366;12.348;2023-08-01T01:32:04;6.63;;;2.73;;
18190;SDS011;47004;51.366;12.348;2023-08-01T01:34:07;6.60;;;2.80;;
18190;SDS011;47004;51.366;12.348;2023-08-01T01:36:09;5.33;;;2.83;;
18190;SDS011;47004;51.366;12.348;2023-08-01T01:38:12;5.87;;;2.97;;
18190;SDS011;47004;51.366;12.348;2023-08-01T01:40:16;6.90;;;3.00;;
18190;SDS011;47004;51.366;12.348;2023-08-01T01:42:18;6.73;;;3.10;;
18190;SDS011;47004;51.366;12.348;2023-08-01T01:44:20;6.20;;;3.43;;
18190;SDS011;47004;51.366;12.348;2023-08-01T01:46:22;10.93;;;3.40;;
18190;SDS011;47004;51.366;12.348;2023-08-01T01:48:23;6.97;;;2.77;;
18190;SDS011;47004;51.366;12.348;2023-08-01T01:50:24;6.67;;;3.23;;
18190;SDS011;47004;51.366;12.348;2023-08-01T01:52:26;6.23;;;3.23;;
18190;SDS011;47004;51.366;12.348;2023-08-01T01:54:30;6.40;;;3.20;;
18190;SDS011;47004;51.366;12.348;2023-08-01T01:56:31;4.60;;;2.90;;
18190;SDS011;47004;51.366;12.348;2023-08-01T01:58:35;6.80;;;3.20;;
18190;SDS011;47004;51.366;12.348;2023-08-01T02:00:37;4.67;;;2.83;;
18190;SDS011;47004;51.366;12.348;2023-08-01T02:02:39;7.20;;;3.40;;
18190;SDS011;47004;51.366;12.348;2023-08-01T02:04:41;7.47;;;3.23;;
18190;SDS011;47004;51.366;12.348;2023-08-01T02:06:43;6.03;;;3.20;;
18190;SDS011;47004;51.366;12.348;2023-08-01T02:08:45;11.27;;;3.43;;
18190;SDS011;47004;51.366;12.348;2023-08-01T02:10:48;5.97;;;3.37;;
18190;SDS011;47004;51.366;12.348;2023-08-01T02:12:50;9.50;;;4.10;;
18190;SDS011;47004;51.366;12.348;2023-08-01T02:14:52;8.20;;;4.30;;
18190;SDS011;47004;51.366;12.348;2023-08-01T02:16:54;6.30;;;3.50;;
18190;SDS011;47004;51.366;12.348;2023-08-01T02:18:56;8.37;;;3.97;;
18190;SDS011;47004;51.366;12.348;2023-08-01T02:20:58;7.17;;;3.80;;
18190;SDS011;47004;51.366;12.348;2023-08-01T02:23:00;8.80;;;3.60;;
18190;SDS011;47004;51.366;12.348;2023-08-01T02:25:02;6.80;;;3.77;;
18190;SDS011;47004;51.366;12.348;2023-08-01T02:27:05;8.00;;;4.10;;
18190;SDS011;47004;51.366;12.348;2023-08-01T02:29:07;7.77;;;3.93;;
18190;SDS011;47004;51.366;12.348;2023-08-01T02:31:08;7.13;;;4.00;;
18190;SDS011;47004;51.366;12.348;2023-08-01T02:33:09;9.80;;;4.40;;
18190;SDS011;47004;51.366;12.348;2023-08-01T02:35:11;8.10;;;3.70;;
18190;SDS011;47004;51.366;12.348;2023-08-01T02:37:13;9.13;;;4.00;;
18190;SDS011;47004;51.366;12.348;2023-08-01T02:39:15;7.93;;;4.40;;
18190;SDS011;47004;51.366;12.348;2023-08-01T02:41:17;7.47;;;3.97;;
18190;SDS011;47004;51.366;12.348;2023-08-01T02:43:20;7.20;;;3.70;;
18190;SDS011;47004;51.366;12.348;2023-08-01T02:45:22;7.47;;;4.00;;
18190;SDS011;47004;51.366;12.348;2023-08-01T02:47:25;6.50;;;3.67;;
18190;SDS011;47004;51.366;12.348;2023-08-01T02:49:27;6.37;;;3.63;;
18190;SDS011;47004;51.366;12.348;2023-08-01T02:51:29;8.17;;;4.03;;
18190;SDS011;47004;51.366;12.348;2023-08-01T02:53:30;7.33;;;3.57;;
18190;SDS011;47004;51.366;12.348;2023-08-01T02:55:32;6.47;;;3.50;;
18190;SDS011;47004;51.366;12.348;2023-08-01T02:57:34;6.47;;;3.40;;
18190;SDS011;47004;51.366;12.348;2023-08-01T02:59:37;6.13;;;3.77;;
18190;SDS011;47004;51.366;12.348;2023-08-01T03:01:39;7.93;;;3.73;;
18190;SDS011;47004;51.366;12.348;2023-08-01T03:03:41;6.60;;;3.27;;
18190;SDS011;47004;51.366;12.348;2023-08-01T03:05:43;8.47;;;3.47;;
18190;SDS011;47004;51.366;12.348;2023-08-01T03:07:44;6.83;;;3.53;;
18190;SDS011;47004;51.366;12.348;2023-08-01T03:09:45;4.57;;;3.23;;
18190;SDS011;47004;51.366;12.348;2023-08-01T03:11:47;6.50;;;3.57;;
18190;SDS011;47004;51.366;12.348;2023-08-01T03:13:49;6.63;;;3.50;;
18190;SDS011;47004;51.366;12.348;2023-08-01T03:15:53;7.70;;;4.03;;
18190;SDS011;47004;51.366;12.348;2023-08-01T03:17:54;6.50;;;3.33;;
18190;SDS011;47004;51.366;12.348;2023-08-01T03:19:56;5.47;;;3.13;;
18190;SDS011;47004;51.366;12.348;2023-08-01T03:21:58;7.73;;;3.07;;
18190;SDS011;47004;51.366;12.348;2023-08-01T03:24:00;4.50;;;2.90;;
18190;SDS011;47004;51.366;12.348;2023-08-01T03:26:03;9.23;;;3.50;;
18190;SDS011;47004;51.366;12.348;2023-08-01T03:28:05;4.33;;;3.20;;
18190;SDS011;47004;51.366;12.348;2023-08-01T03:30:07;5.43;;;3.17;;
18190;SDS011;47004;51.366;12.348;2023-08-01T03:32:11;4.60;;;3.07;;
18190;SDS011;47004;51.366;12.348;2023-08-01T03:34:13;6.90;;;3.30;;
18190;SDS011;47004;51.366;12.348;2023-08-01T03:36:14;5.73;;;2.67;;
18190;SDS011;47004;51.366;12.348;2023-08-01T03:38:16;8.17;;;3.17;;
18190;SDS011;47004;51.366;12.348;2023-08-01T03:40:18;5.73;;;2.77;;
18190;SDS011;47004;51.366;12.348;2023-08-01T03:42:21;5.50;;;3.10;;
18190;SDS011;47004;51.366;12.348;2023-08-01T03:44:23;5.33;;;2.97;;
18190;SDS011;47004;51.366;12.348;2023-08-01T03:46:25;5.27;;;2.80;;
18190;SDS011;47004;51.366;12.348;2023-08-01T03:48:28;8.13;;;3.40;;
18190;SDS011;47004;51.366;12.348;2023-08-01T03:50:33;7.03;;;2.63;;
18190;SDS011;47004;51.366;12.348;2023-08-01T03:52:36;7.93;;;3.17;;
18190;SDS011;47004;51.366;12.348;2023-08-01T03:54:37;4.47;;;2.40;;
18190;SDS011;47004;51.366;12.348;2023-08-01T03:56:39;5.10;;;2.83;;
18190;SDS011;47004;51.366;12.348;2023-08-01T03:58:43;7.97;;;2.90;;
18190;SDS011;47004;51.366;12.348;2023-08-01T04:00:45;4.47;;;2.47;;
18190;SDS011;47004;51.366;12.348;2023-08-01T04:02:47;6.70;;;3.10;;
18190;SDS011;47004;51.366;12.348;2023-08-01T04:04:50;6.30;;;2.80;;
18190;SDS011;47004;51.366;12.348;2023-08-01T04:06:53;5.43;;;2.97;;
18190;SDS011;47004;51.366;12.348;2023-08-01T04:08:55;4.90;;;2.90;;
18190;SDS011;47004;51.366;12.348;2023-08-01T04:10:57;7.50;;;2.90;;
18190;SDS011;47004;51.366;12.348;2023-08-01T04:12:58;5.47;;;2.80;;
18190;SDS011;47004;51.366;12.348;2023-08-01T04:14:59;11.13;;;3.13;;
18190;SDS011;47004;51.366;12.348;2023-08-01T04:17:02;6.33;;;2.83;;
18190;SDS011;47004;51.366;12.348;2023-08-01T04:19:04;6.87;;;3.10;;
18190;SDS011;47004;51.366;12.348;2023-08-01T04:21:07;7.77;;;3.07;;
18190;SDS011;47004;51.366;12.348;2023-08-01T04:23:09;5.30;;;3.03;;
18190;SDS011;47004;51.366;12.348;2023-08-01T04:25:11;6.97;;;3.10;;
18190;SDS011;47004;51.366;12.348;2023-08-01T04:27:13;5.57;;;3.20;;
18190;SDS011;47004;51.366;12.348;2023-08-01T04:29:15;6.60;;;3.10;;
18190;SDS011;47004;51.366;12.348;2023-08-01T04:31:18;9.73;;;4.90;;
18190;SDS011;47004;51.366;12.348;2023-08-01T04:33:19;9.67;;;4.90;;
18190;SDS011;47004;51.366;12.348;2023-08-01T04:35:21;8.80;;;4.83;;
18190;SDS011;47004;51.366;12.348;2023-08-01T04:37:24;7.23;;;3.23;;
18190;SDS011;47004;51.366;12.348;2023-08-01T04:39:26;8.50;;;2.80;;
18190;SDS011;47004;51.366;12.348;2023-08-01T04:41:28;4.83;;;2.90;;
18190;SDS011;47004;51.366;12.348;2023-08-01T04:43:29;7.10;;;4.00;;
18190;SDS011;47004;51.366;12.348;2023-08-01T04:45:31;7.17;;;2.87;;
18190;SDS011;47004;51.366;12.348;2023-08-01T04:47:33;5.73;;;3.30;;
18190;SDS011;47004;51.366;12.348;2023-08-01T04:49:35;9.23;;;2.83;;
18190;SDS011;47004;51.366;12.348;2023-08-01T04:51:37;6.37;;;3.30;;
18190;SDS011;47004;51.366;12.348;2023-08-01T04:53:41;4.33;;;2.80;;
18190;SDS011;47004;51.366;12.348;2023-08-01T04:55:42;4.63;;;2.73;;
18190;SDS011;47004;51.366;12.348;2023-08-01T04:57:44;8.73;;;3.90;;
18190;SDS011;47004;51.366;12.348;2023-08-01T04:59:46;5.23;;;3.17;;
18190;SDS011;47004;51.366;12.348;2023-08-01T05:01:48;5.27;;;2.73;;
18190;SDS011;47004;51.366;12.348;2023-08-01T05:03:50;8.07;;;2.80;;
18190;SDS011;47004;51.366;12.348;2023-08-01T05:05:52;6.50;;;2.67;;
18190;SDS011;47004;51.366;12.348;2023-08-01T05:07:54;5.77;;;3.00;;
18190;SDS011;47004;51.366;12.348;2023-08-01T05:09:57;6.83;;;2.80;;
18190;SDS011;47004;51.366;12.348;2023-08-01T05:11:59;6.50;;;2.60;;
18190;SDS011;47004;51.366;12.348;2023-08-01T05:14:00;6.50;;;2.63;;
18190;SDS011;47004;51.366;12.348;2023-08-01T05:16:03;9.93;;;5.63;;
18190;SDS011;47004;51.366;12.348;2023-08-01T05:18:04;7.33;;;3.37;;
18190;SDS011;47004;51.366;12.348;2023-08-01T05:20:06;4.90;;;2.70;;
18190;SDS011;47004;51.366;12.348;2023-08-01T05:22:09;4.40;;;2.50;;
18190;SDS011;47004;51.366;12.348;2023-08-01T05:24:10;7.17;;;2.80;;
18190;SDS011;47004;51.366;12.348;2023-08-01T05:26:14;6.00;;;2.60;;
18190;SDS011;47004;51.366;12.348;2023-08-01T05:28:15;6.50;;;2.57;;
18190;SDS011;47004;51.366;12.348;2023-08-01T05:30:16;6.40;;;3.00;;
18190;SDS011;47004;51.366;12.348;2023-08-01T05:32:18;5.70;;;2.57;;
18190;SDS011;47004;51.366;12.348;2023-08-01T05:34:20;5.60;;;3.00;;
18190;SDS011;47004;51.366;12.348;2023-08-01T05:36:21;9.90;;;3.00;;
18190;SDS011;47004;51.366;12.348;2023-08-01T05:38:23;8.80;;;2.80;;
18190;SDS011;47004;51.366;12.348;2023-08-01T05:40:25;6.83;;;2.77;;
18190;SDS011;47004;51.366;12.348;2023-08-01T05:42:28;8.20;;;3.00;;
18190;SDS011;47004;51.366;12.348;2023-08-01T05:44:30;7.63;;;3.00;;
18190;SDS011;47004;51.366;12.348;2023-08-01T05:46:31;4.97;;;2.80;;
18190;SDS011;47004;51.366;12.348;2023-08-01T05:48:33;5.17;;;3.03;;
18190;SDS011;47004;51.366;12.348;2023-08-01T05:50:35;14.77;;;5.27;;
18190;SDS011;47004;51.366;12.348;2023-08-01T05:52:36;7.23;;;3.47;;
18190;SDS011;47004;51.366;12.348;2023-08-01T05:54:37;6.03;;;2.70;;
18190;SDS011;47004;51.366;12.348;2023-08-01T05:56:39;5.33;;;2.80;;
18190;SDS011;47004;51.366;12.348;2023-08-01T05:58:43;8.23;;;2.83;;
18190;SDS011;47004;51.366;12.348;2023-08-01T06:00:45;6.17;;;2.70;;
18190;SDS011;47004;51.366;12.348;2023-08-01T06:02:46;5.67;;;2.70;;
18190;SDS011;47004;51.366;12.348;2023-08-01T06:04:49;5.70;;;2.70;;
18190;SDS011;47004;51.366;12.348;2023-08-01T06:06:51;6.50;;;2.47;;
18190;SDS011;47004;51.366;12.348;2023-08-01T06:08:52;8.00;;;2.60;;
18190;SDS011;47004;51.366;12.348;2023-08-01T06:10:54;6.37;;;2.00;;
18190;SDS011;47004;51.366;12.348;2023-08-01T06:12:56;4.77;;;2.20;;
18190;SDS011;47004;51.366;12.348;2023-08-01T06:15:00;5.67;;;2.37;;
18190;SDS011;47004;51.366;12.348;2023-08-01T06:17:01;5.60;;;2.30;;
18190;SDS011;47004;51.366;12.348;2023-08-01T06:19:03;6.20;;;2.30;;
18190;SDS011;47004;51.366;12.348;2023-08-01T06:21:05;3.67;;;2.20;;
18190;SDS011;47004;51.366;12.348;2023-08-01T06:23:07;6.60;;;2.10;;
18190;SDS011;47004;51.366;12.348;2023-08-01T06:25:09;7.47;;;2.20;;
18190;SDS011;47004;51.366;12.348;2023-08-01T06:27:11;12.20;;;2.10;;
18190;SDS011;47004;51.366;12.348;2023-08-01T06:29:15;3.87;;;2.20;;
18190;SDS011;47004;51.366;12.348;2023-08-01T06:31:18;4.77;;;2.00;;
18190;SDS011;47004;51.366;12.348;2023-08-01T06:33:20;4.33;;;1.70;;
18190;SDS011;47004;51.366;12.348;2023-08-01T06:35:22;5.73;;;2.00;;
18190;SDS011;47004;51.366;12.348;2023-08-01T06:37:24;2.97;;;1.70;;
18190;SDS011;47004;51.366;12.348;2023-08-01T06:39:29;3.97;;;1.67;;
18190;SDS011;47004;51.366;12.348;2023-08-01T06:41:31;3.10;;;1.67;;
18190;SDS011;47004;51.366;12.348;2023-08-01T06:43:33;2.70;;;1.30;;
18190;SDS011;47004;51.366;12.348;2023-08-01T06:45:37;2.40;;;1.07;;
18190;SDS011;47004;51.366;12.348;2023-08-01T06:47:40;2.00;;;1.10;;
18190;SDS011;47004;51.366;12.348;2023-08-01T06:49:42;1.57;;;1.03;;
18190;SDS011;47004;51.366;12.348;2023-08-01T06:51:45;2.17;;;1.10;;
18190;SDS011;47004;51.366;12.348;2023-08-01T06:53:46;2.13;;;1.10;;
18190;SDS011;47004;51.366;12.348;2023-08-01T06:55:48;2.13;;;1.10;;
18190;SDS011;47004;51.366;12.348;2023-08-01T06:57:50;1.77;;;1.00;;
18190;SDS011;47004;51.366;12.348;2023-08-01T06:59:52;3.20;;;1.10;;
18190;SDS011;47004;51.366;12.348;2023-08-01T07:01:56;2.17;;;1.00;;
18190;SDS011;47004;51.366;12.348;2023-08-01T07:03:59;3.17;;;0.90;;
18190;SDS011;47004;51.366;12.348;2023-08-01T07:06:00;2.13;;;0.90;;
18190;SDS011;47004;51.366;12.348;2023-08-01T07:08:02;3.20;;;0.90;;
18190;SDS011;47004;51.366;12.348;2023-08-01T07:10:05;1.67;;;0.90;;
18190;SDS011;47004;51.366;12.348;2023-08-01T07:12:08;4.33;;;1.17;;
18190;SDS011;47004;51.366;12.348;2023-08-01T07:14:09;3.13;;;1.00;;
18190;SDS011;47004;51.366;12.348;2023-08-01T07:16:11;2.33;;;1.07;;
18190;SDS011;47004;51.366;12.348;2023-08-01T07:18:13;1.97;;;1.20;;
18190;SDS011;47004;51.366;12.348;2023-08-01T07:20:17;3.57;;;1.00;;
18190;SDS011;47004;51.366;12.348;2023-08-01T07:22:19;4.67;;;0.93;;
18190;SDS011;47004;51.366;12.348;2023-08-01T07:24:21;2.63;;;1.13;;
18190;SDS011;47004;51.366;12.348;2023-08-01T07:26:23;2.50;;;1.10;;
18190;SDS011;47004;51.366;12.348;2023-08-01T07:28:23;4.83;;;1.17;;
18190;SDS011;47004;51.366;12.348;2023-08-01T07:30:25;4.53;;;1.23;;
18190;SDS011;47004;51.366;12.348;2023-08-01T07:32:27;2.03;;;0.90;;
18190;SDS011;47004;51.366;12.348;2023-08-01T07:34:29;1.47;;;0.80;;
18190;SDS011;47004;51.366;12.348;2023-08-01T07:36:32;5.23;;;0.90;;
18190;SDS011;47004;51.366;12.348;2023-08-01T07:38:34;7.30;;;1.13;;
18190;SDS011;47004;51.366;12.348;2023-08-01T07:40:36;3.80;;;1.20;;
18190;SDS011;47004;51.366;12.348;2023-08-01T07:42:38;1.70;;;0.70;;
18190;SDS011;47004;51.366;12.348;2023-08-01T07:44:40;4.87;;;1.50;;
18190;SDS011;47004;51.366;12.348;2023-08-01T07:46:42;2.83;;;0.83;;
18190;SDS011;47004;51.366;12.348;2023-08-01T07:48:46;4.00;;;1.00;;
18190;SDS011;47004;51.366;12.348;2023-08-01T07:50:49;2.27;;;0.77;;
18190;SDS011;47004;51.366;12.348;2023-08-01T07:52:52;3.27;;;1.00;;
18190;SDS011;47004;51.366;12.348;2023-08-01T07:54:54;1.40;;;0.70;;
18190;SDS011;47004;51.366;12.348;2023-08-01T07:56:58;2.30;;;0.70;;
18190;SDS011;47004;51.366;12.348;2023-08-01T07:59:00;1.47;;;0.80;;
18190;SDS011;47004;51.366;12.348;2023-08-01T08:01:17;1.83;;;0.80;;
18190;SDS011;47004;51.366;12.348;2023-08-01T08:03:19;1.57;;;0.73;;
18190;SDS011;47004;51.366;12.348;2023-08-01T08:05:22;1.80;;;0.90;;
18190;SDS011;47004;51.366;12.348;2023-08-01T08:07:24;1.87;;;1.00;;
18190;SDS011;47004;51.366;12.348;2023-08-01T08:09:27;2.30;;;0.87;;
18190;SDS011;47004;51.366;12.348;2023-08-01T08:11:29;11.37;;;1.20;;
18190;SDS011;47004;51.366;12.348;2023-08-01T08:13:31;3.13;;;1.03;;
18190;SDS011;47004;51.366;12.348;2023-08-01T08:15:33;2.60;;;0.93;;
18190;SDS011;47004;51.366;12.348;2023-08-01T08:17:35;2.00;;;0.87;;
18190;SDS011;47004;51.366;12.348;2023-08-01T08:19:37;2.70;;;1.00;;
18190;SDS011;47004;51.366;12.348;2023-08-01T08:21:39;1.70;;;0.80;;
18190;SDS011;47004;51.366;12.348;2023-08-01T08:23:41;2.37;;;1.30;;
18190;SDS011;47004;51.366;12.348;2023-08-01T08:25:44;2.70;;;0.87;;
18190;SDS011;47004;51.366;12.348;2023-08-01T08:27:48;1.00;;;0.90;;
18190;SDS011;47004;51.366;12.348;2023-08-01T08:29:50;2.63;;;0.70;;
18190;SDS011;47004;51.366;12.348;2023-08-01T08:31:52;2.67;;;0.93;;
18190;SDS011;47004;51.366;12.348;2023-08-01T08:33:54;1.77;;;0.80;;
18190;SDS011;47004;51.366;12.348;2023-08-01T08:35:56;2.57;;;1.00;;
18190;SDS011;47004;51.366;12.348;2023-08-01T08:37:58;1.80;;;0.90;;
18190;SDS011;47004;51.366;12.348;2023-08-01T08:40:01;2.30;;;0.63;;
18190;SDS011;47004;51.366;12.348;2023-08-01T08:42:05;1.83;;;0.80;;
18190;SDS011;47004;51.366;12.348;2023-08-01T08:44:08;1.23;;;0.70;;
18190;SDS011;47004;51.366;12.348;2023-08-01T08:46:12;3.60;;;0.80;;
18190;SDS011;47004;51.366;12.348;2023-08-01T08:48:17;1.73;;;0.70;;
18190;SDS011;47004;51.366;12.348;2023-08-01T08:50:20;1.23;;;0.73;;
18190;SDS011;47004;51.366;12.348;2023-08-01T08:52:22;1.93;;;0.80;;
18190;SDS011;47004;51.366;12.348;2023-08-01T08:54:25;2.03;;;1.17;;
18190;SDS011;47004;51.366;12.348;2023-08-01T08:56:28;2.00;;;1.00;;
18190;SDS011;47004;51.366;12.348;2023-08-01T08:58:31;0.87;;;0.53;;
18190;SDS011;47004;51.366;12.348;2023-08-01T09:00:33;0.80;;;0.63;;
18190;SDS011;47004;51.366;12.348;2023-08-01T09:02:37;1.90;;;0.60;;
18190;SDS011;47004;51.366;12.348;2023-08-01T09:04:39;1.40;;;0.90;;
18190;SDS011;47004;51.366;12.348;2023-08-01T09:06:40;1.47;;;0.77;;
18190;SDS011;47004;51.366;12.348;2023-08-01T09:08:47;1.37;;;0.80;;
18190;SDS011;47004;51.366;12.348;2023-08-01T09:10:52;1.97;;;0.97;;
18190;SDS011;47004;51.366;12.348;2023-08-01T09:12:54;4.43;;;0.80;;
18190;SDS011;47004;51.366;12.348;2023-08-01T09:14:57;1.60;;;0.80;;
18190;SDS011;47004;51.366;12.348;2023-08-01T09:17:05;1.10;;;1.00;;
18190;SDS011;47004;51.366;12.348;2023-08-01T09:19:08;4.30;;;1.17;;
18190;SDS011;47004;51.366;12.348;2023-08-01T09:21:13;1.00;;;0.90;;
18190;SDS011;47004;51.366;12.348;2023-08-01T09:23:15;2.53;;;1.00;;
18190;SDS011;47004;51.366;12.348;2023-08-01T09:25:18;2.80;;;1.17;;
18190;SDS011;47004;51.366;12.348;2023-08-01T09:27:20;3.83;;;1.30;;
18190;SDS011;47004;51.366;12.348;2023-08-01T09:29:23;2.13;;;1.20;;
18190;SDS011;47004;51.366;12.348;2023-08-01T09:31:28;3.00;;;1.10;;
18190;SDS011;47004;51.366;12.348;2023-08-01T09:33:37;2.80;;;0.87;;
18190;SDS011;47004;51.366;12.348;2023-08-01T09:35:40;3.60;;;1.10;;
18190;SDS011;47004;51.366;12.348;2023-08-01T09:37:41;4.17;;;1.40;;
18190;SDS011;47004;51.366;12.348;2023-08-01T09:39:44;2.60;;;1.30;;
18190;SDS011;47004;51.366;12.348;2023-08-01T09:41:56;4.27;;;1.23;;
18190;SDS011;47004;51.366;12.348;2023-08-01T09:43:58;2.63;;;1.30;;
18190;SDS011;47004;51.366;12.348;2023-08-01T09:46:01;1.67;;;1.00;;
18190;SDS011;47004;51.366;12.348;2023-08-01T09:48:04;2.17;;;1.17;;
18190;SDS011;47004;51.366;12.348;2023-08-01T09:50:08;1.60;;;1.10;;
18190;SDS011;47004;51.366;12.348;2023-08-01T09:52:09;1.83;;;1.30;;
18190;SDS011;47004;51.366;12.348;2023-08-01T09:54:11;3.17;;;1.40;;
18190;SDS011;47004;51.366;12.348;2023-08-01T09:56:14;1.40;;;1.10;;
18190;SDS011;47004;51.366;12.348;2023-08-01T09:58:17;2.70;;;1.33;;
18190;SDS011;47004;51.366;12.348;2023-08-01T10:00:28;2.57;;;0.83;;
18190;SDS011;47004;51.366;12.348;2023-08-01T10:02:31;1.80;;;0.70;;
18190;SDS011;47004;51.366;12.348;2023-08-01T10:04:34;1.73;;;0.90;;
18190;SDS011;47004;51.366;12.348;2023-08-01T10:06:41;1.00;;;0.60;;
18190;SDS011;47004;51.366;12.348;2023-08-01T10:08:47;3.50;;;0.90;;
18190;SDS011;47004;51.366;12.348;2023-08-01T10:10:50;1.70;;;0.97;;
18190;SDS011;47004;51.366;12.348;2023-08-01T10:12:58;2.20;;;0.90;;
18190;SDS011;47004;51.366;12.348;2023-08-01T10:15:03;0.83;;;0.60;;
18190;SDS011;47004;51.366;12.348;2023-08-01T10:17:06;2.03;;;1.73;;
18190;SDS011;47004;51.366;12.348;2023-08-01T10:19:09;2.50;;;1.30;;
18190;SDS011;47004;51.366;12.348;2023-08-01T10:21:14;1.40;;;1.00;;
18190;SDS011;47004;51.366;12.348;2023-08-01T10:23:16;1.63;;;1.33;;
18190;SDS011;47004;51.366;12.348;2023-08-01T10:25:19;1.17;;;0.90;;
18190;SDS011;47004;51.366;12.348;2023-08-01T10:27:23;2.83;;;1.00;;
18190;SDS011;47004;51.366;12.348;2023-08-01T10:29:34;1.87;;;1.10;;
18190;SDS011;47004;51.366;12.348;2023-08-01T10:31:36;1.20;;;0.87;;
18190;SDS011;47004;51.366;12.348;2023-08-01T10:33:38;1.93;;;1.10;;
18190;SDS011;47004;51.366;12.348;2023-08-01T10:35:41;1.43;;;1.10;;
18190;SDS011;47004;51.366;12.348;2023-08-01T10:37:45;2.03;;;1.10;;
18190;SDS011;47004;51.366;12.348;2023-08-01T10:39:56;2.37;;;1.03;;
18190;SDS011;47004;51.366;12.348;2023-08-01T10:42:03;0.70;;;0.70;;
18190;SDS011;47004;51.366;12.348;2023-08-01T10:44:07;1.97;;;1.00;;
18190;SDS011;47004;51.366;12.348;2023-08-01T10:46:12;2.33;;;1.10;;
18190;SDS011;47004;51.366;12.348;2023-08-01T10:48:13;3.70;;;1.00;;
18190;SDS011;47004;51.366;12.348;2023-08-01T10:50:16;1.40;;;0.80;;
18190;SDS011;47004;51.366;12.348;2023-08-01T10:52:19;1.33;;;0.80;;
18190;SDS011;47004;51.366;12.348;2023-08-01T10:54:25;2.33;;;1.10;;
18190;SDS011;47004;51.366;12.348;2023-08-01T10:56:27;1.40;;;1.10;;
18190;SDS011;47004;51.366;12.348;2023-08-01T10:58:31;3.27;;;1.23;;
18190;SDS011;47004;51.366;12.348;2023-08-01T11:00:33;2.13;;;1.20;;
18190;SDS011;47004;51.366;12.348;2023-08-01T11:02:35;2.53;;;1.23;;
18190;SDS011;47004;51.366;12.348;2023-08-01T11:04:37;1.93;;;1.60;;
18190;SDS011;47004;51.366;12.348;2023-08-01T11:06:42;3.83;;;1.57;;
18190;SDS011;47004;51.366;12.348;2023-08-01T11:08:45;2.67;;;1.50;;
18190;SDS011;47004;51.366;12.348;2023-08-01T11:10:50;2.30;;;1.53;;
18190;SDS011;47004;51.366;12.348;2023-08-01T11:12:51;1.73;;;1.43;;
18190;SDS011;47004;51.366;12.348;2023-08-01T11:14:58;4.13;;;1.73;;
18190;SDS011;47004;51.366;12.348;2023-08-01T11:17:00;2.93;;;1.93;;
18190;SDS011;47004;51.366;12.348;2023-08-01T11:19:02;3.43;;;2.10;;
18190;SDS011;47004;51.366;12.348;2023-08-01T11:21:03;3.83;;;2.03;;
18190;SDS011;47004;51.366;12.348;2023-08-01T11:23:05;5.63;;;2.17;;
18190;SDS011;47004;51.366;12.348;2023-08-01T11:25:08;6.23;;;2.00;;
18190;SDS011;47004;51.366;12.348;2023-08-01T11:27:11;7.30;;;2.30;;
18190;SDS011;47004;51.366;12.348;2023-08-01T11:29:13;2.73;;;1.97;;
18190;SDS011;47004;51.366;12.348;2023-08-01T11:31:16;4.10;;;2.10;;
18190;SDS011;47004;51.366;12.348;2023-08-01T11:33:19;2.87;;;2.30;;
18190;SDS011;47004;51.366;12.348;2023-08-01T11:35:22;4.03;;;2.30;;
18190;SDS011;47004;51.366;12.348;2023-08-01T11:37:25;4.50;;;2.00;;
18190;SDS011;47004;51.366;12.348;2023-08-01T11:39:28;2.60;;;2.00;;
18190;SDS011;47004;51.366;12.348;2023-08-01T11:41:30;2.70;;;1.80;;
18190;SDS011;47004;51.366;12.348;2023-08-01T11:43:39;1.77;;;1.53;;
18190;SDS011;47004;51.366;12.348;2023-08-01T11:45:48;2.73;;;1.80;;
18190;SDS011;47004;51.366;12.348;2023-08-01T11:47:52;2.27;;;1.73;;
18190;SDS011;47004;51.366;12.348;2023-08-01T11:49:54;3.87;;;2.03;;
18190;SDS011;47004;51.366;12.348;2023-08-01T11:52:01;6.67;;;2.20;;
18190;SDS011;47004;51.366;12.348;2023-08-01T11:54:07;5.50;;;2.47;;
18190;SDS011;47004;51.366;12.348;2023-08-01T11:56:19;3.33;;;2.00;;
18190;SDS011;47004;51.366;12.348;2023-08-01T11:58:33;4.30;;;2.30;;
18190;SDS011;47004;51.366;12.348;2023-08-01T12:00:37;3.73;;;2.50;;
18190;SDS011;47004;51.366;12.348;2023-08-01T12:02:38;4.43;;;2.30;;
18190;SDS011;47004;51.366;12.348;2023-08-01T12:04:45;4.37;;;2.10;;
18190;SDS011;47004;51.366;12.348;2023-08-01T12:06:47;3.03;;;2.10;;